createdAt,value
2023-11-24T00:04:28.293Z,101065.81
2023-11-24T00:09:31.443Z,101069.31
2023-11-24T00:14:34.108Z,101067.94
2023-11-24T00:19:38.082Z,101069.94
2023-11-24T00:24:41.243Z,101063.78
2023-11-24T00:29:44.837Z,101075.16
2023-11-24T00:34:49.303Z,101087.78
2023-11-24T00:39:52.080Z,101086.50
2023-11-24T00:44:54.758Z,101096.13
2023-11-24T00:49:59.698Z,101115.34
2023-11-24T00:55:04.071Z,101093.91
2023-11-24T01:00:09.494Z,100982.06
2023-11-24T01:05:13.549Z,101088.53
2023-11-24T01:10:16.263Z,101079.53
2023-11-24T01:15:19.063Z,101071.81
2023-11-24T01:20:23.710Z,101064.28
2023-11-24T01:25:26.427Z,101073.00
2023-11-24T01:30:29.114Z,101069.88
2023-11-24T01:35:33.138Z,101059.28
2023-11-24T01:40:35.754Z,101065.22
2023-11-24T01:45:38.513Z,101062.34
2023-11-24T01:50:43.625Z,101047.78
2023-11-24T01:55:47.656Z,101037.81
2023-11-24T02:00:51.616Z,101032.31
2023-11-24T02:05:56.499Z,101038.25
2023-11-24T02:10:59.276Z,100993.72
2023-11-24T02:16:34.859Z,101032.91
2023-11-24T02:21:39.107Z,101018.50
2023-11-24T02:26:43.301Z,101020.13
2023-11-24T02:31:46.065Z,101005.53
2023-11-24T02:36:48.904Z,101009.31
2023-11-24T02:41:53.727Z,101006.38
2023-11-24T02:46:56.962Z,100948.16
2023-11-24T02:52:00.040Z,100945.22
2023-11-24T02:57:04.651Z,100934.63
2023-11-24T03:02:07.495Z,100934.03
2023-11-24T03:07:11.899Z,100801.75
2023-11-24T03:12:17.467Z,100968.59
2023-11-24T03:17:20.298Z,100962.28
2023-11-24T03:22:23.306Z,100871.31
2023-11-24T03:27:28.402Z,100951.44
2023-11-24T03:32:31.520Z,100853.09
2023-11-24T03:37:34.395Z,100941.75
2023-11-24T03:42:39.319Z,100957.50
2023-11-24T03:47:42.995Z,100944.44
2023-11-24T03:52:45.955Z,100885.84
2023-11-24T03:57:50.070Z,100835.69
2023-11-24T04:02:52.936Z,100829.53
2023-11-24T04:07:55.670Z,100937.44
2023-11-24T04:12:59.929Z,100930.88
2023-11-24T04:18:02.808Z,100938.50
2023-11-24T04:23:08.168Z,100872.25
2023-11-24T04:28:15.606Z,100901.28
2023-11-24T04:33:19.733Z,100921.44
2023-11-24T04:38:22.497Z,100731.78
2023-11-24T04:43:27.723Z,100675.63
2023-11-24T04:48:30.833Z,100688.31
2023-11-24T04:53:34.115Z,100920.78
2023-11-24T04:58:38.720Z,100908.94
2023-11-24T05:03:44.038Z,100856.97
2023-11-24T05:08:48.862Z,100673.28
2023-11-24T05:13:53.387Z,100902.75
2023-11-24T05:18:56.189Z,100904.47
2023-11-24T05:23:59.197Z,100691.28
2023-11-24T05:29:04.844Z,100900.78
2023-11-24T05:34:07.870Z,100851.88
2023-11-24T05:39:12.759Z,100708.94
2023-11-24T05:44:47.158Z,100896.16
2023-11-24T05:49:53.413Z,100877.44
2023-11-24T05:54:59.535Z,100873.88
2023-11-24T06:00:44.298Z,100880.34
2023-11-24T06:05:47.359Z,100544.22
2023-11-24T06:10:57.528Z,100665.44
2023-11-24T06:16:02.259Z,100864.00
2023-11-24T06:21:11.668Z,100862.34
2023-11-24T06:26:14.638Z,100795.91
2023-11-24T06:31:20.821Z,100776.75
2023-11-24T06:36:24.000Z,100771.94
2023-11-24T06:41:30.600Z,100866.63
2023-11-24T06:46:35.940Z,100799.44
2023-11-24T06:51:40.241Z,100872.19
2023-11-24T06:56:45.764Z,100878.03
2023-11-24T07:01:50.482Z,100803.44
2023-11-24T07:06:53.533Z,100819.31
2023-11-24T07:11:56.308Z,100834.44
2023-11-24T07:17:02.711Z,100854.03
2023-11-24T07:22:06.429Z,100831.34
2023-11-24T07:27:09.265Z,100870.88
2023-11-24T07:32:13.950Z,100816.16
2023-11-24T07:37:17.081Z,100864.38
2023-11-24T07:42:21.208Z,100867.84
2023-11-24T07:47:28.347Z,100848.63
2023-11-24T07:52:32.086Z,100818.16
2023-11-24T07:57:36.355Z,100832.50
2023-11-24T08:02:40.638Z,100758.91
2023-11-24T08:07:45.354Z,100772.09
2023-11-24T08:12:50.124Z,100836.53
2023-11-24T08:17:54.508Z,100824.06
2023-11-24T08:23:06.394Z,100706.88
2023-11-24T08:28:09.376Z,100436.78
2023-11-24T08:33:14.915Z,100466.66
2023-11-24T08:38:20.026Z,100677.69
2023-11-24T08:43:24.377Z,100370.25
2023-11-24T08:48:28.643Z,100641.88
2023-11-24T08:53:35.523Z,100745.56
2023-11-24T08:58:38.463Z,100794.75
2023-11-24T09:03:43.182Z,100793.31
2023-11-24T09:08:46.332Z,100716.81
2023-11-24T09:13:49.733Z,100765.56
2023-11-24T09:18:55.916Z,100704.78
2023-11-24T09:24:01.962Z,100746.16
2023-11-24T09:29:04.677Z,100720.09
2023-11-24T09:34:09.056Z,100762.00
2023-11-24T09:39:11.941Z,100772.19
2023-11-24T09:44:17.044Z,100689.38
2023-11-24T09:49:22.279Z,100713.88
2023-11-24T09:54:25.258Z,100752.34
2023-11-24T09:59:28.219Z,100727.38
2023-11-24T10:04:32.455Z,100764.38
2023-11-24T10:09:35.288Z,100762.94
2023-11-24T10:14:44.267Z,100754.84
2023-11-24T10:19:49.059Z,100743.66
2023-11-24T10:24:55.405Z,100748.47
2023-11-24T10:29:58.205Z,100770.44
2023-11-24T10:35:05.052Z,100766.97
2023-11-24T10:40:15.087Z,100743.63
2023-11-24T10:45:20.472Z,100731.69
2023-11-24T10:50:28.277Z,100638.94
2023-11-24T10:55:33.664Z,100724.59
2023-11-24T11:00:38.217Z,100724.38
2023-11-24T11:05:53.517Z,100539.75
2023-11-24T11:11:26.387Z,100677.66
2023-11-24T11:16:30.760Z,100566.50
2023-11-24T11:21:41.356Z,100667.28
2023-11-24T11:26:51.821Z,100681.06
2023-11-24T11:31:57.960Z,100680.44
2023-11-24T11:37:07.706Z,100678.94
2023-11-24T11:42:13.618Z,100640.81
2023-11-24T11:47:22.999Z,100666.06
2023-11-24T11:52:34.015Z,100669.81
2023-11-24T11:57:41.040Z,100680.00
2023-11-24T12:02:43.937Z,100664.75
2023-11-24T12:08:09.564Z,100670.78
2023-11-24T12:13:42.449Z,100651.78
2023-11-24T12:18:58.129Z,100625.31
2023-11-24T12:24:17.108Z,100486.03
2023-11-24T12:29:25.760Z,100533.81
2023-11-24T12:35:09.272Z,100617.69
2023-11-24T12:40:14.366Z,100578.91
2023-11-24T12:45:20.769Z,100588.50
2023-11-24T12:50:32.598Z,100559.19
2023-11-24T12:55:53.642Z,100447.78
2023-11-24T13:00:58.218Z,100336.41
2023-11-24T13:12:57.447Z,100556.69
2023-11-24T13:18:35.261Z,100413.75
2023-11-24T13:23:39.638Z,100552.41
2023-11-24T13:28:46.779Z,100468.81
2023-11-24T13:33:56.674Z,100348.56
2023-11-24T13:39:11.911Z,100556.84
2023-11-24T13:44:17.406Z,100365.28
2023-11-24T13:49:27.997Z,100435.34
2023-11-24T13:54:35.261Z,100535.72
2023-11-24T13:59:42.769Z,100527.94
2023-11-24T14:04:52.369Z,100532.56
2023-11-24T14:10:20.730Z,100591.16
2023-11-24T14:15:24.981Z,100554.34
2023-11-24T14:20:27.727Z,100494.16
2023-11-24T14:25:31.841Z,100562.72
2023-11-24T14:30:54.322Z,100483.88
2023-11-24T14:35:59.484Z,100583.69
2023-11-24T14:41:08.430Z,100378.56
2023-11-24T14:46:13.460Z,100537.91
2023-11-24T14:51:16.615Z,100460.75
2023-11-24T14:56:20.761Z,100516.72
2023-11-24T15:01:28.384Z,100320.72
2023-11-24T15:06:32.546Z,100453.72
2023-11-24T15:11:38.919Z,100476.44
2023-11-24T15:16:52.089Z,100587.00
2023-11-24T15:21:55.900Z,100565.44
2023-11-24T15:26:58.712Z,100585.22
2023-11-24T15:32:07.381Z,100540.94
2023-11-24T15:37:11.008Z,100582.81
2023-11-24T15:42:18.741Z,100541.06
2023-11-24T15:47:25.523Z,100623.38
2023-11-24T15:52:34.888Z,100596.63
2023-11-24T15:57:39.751Z,100562.81
2023-11-24T16:02:45.107Z,100529.03
2023-11-24T16:07:54.859Z,100587.41
2023-11-24T16:13:03.568Z,100588.75
2023-11-24T16:18:10.357Z,100591.66
2023-11-24T16:23:13.464Z,100622.47
2023-11-24T16:28:18.114Z,100629.63
2023-11-24T16:33:22.195Z,100612.16
2023-11-24T16:38:25.788Z,100625.34
2023-11-24T16:43:28.812Z,100578.00
2023-11-24T16:48:33.178Z,100596.78
2023-11-24T16:53:36.094Z,100551.59
2023-11-24T16:58:39.091Z,100485.88
2023-11-24T17:03:43.805Z,100579.91
2023-11-24T17:08:46.673Z,100522.63
2023-11-24T17:13:49.542Z,100586.91
2023-11-24T17:18:54.154Z,100577.63
2023-11-24T17:23:57.225Z,100568.94
2023-11-24T17:29:02.383Z,100558.75
2023-11-24T17:34:08.304Z,100523.91
2023-11-24T17:39:13.866Z,100527.38
2023-11-24T17:44:17.113Z,100529.31
2023-11-24T17:49:21.382Z,100546.75
2023-11-24T17:54:24.970Z,100537.75
2023-11-24T17:59:27.809Z,100539.53
2023-11-24T18:04:32.270Z,100437.28
2023-11-24T18:09:35.180Z,100484.00
2023-11-24T18:14:38.478Z,100321.22
2023-11-24T18:19:45.139Z,100234.06
2023-11-24T18:24:47.872Z,100528.34
2023-11-24T18:29:50.636Z,100504.63
2023-11-24T18:34:58.583Z,100525.13
2023-11-24T18:40:05.863Z,100509.03
2023-11-24T18:45:12.109Z,100205.88
2023-11-24T18:50:17.782Z,100289.41
2023-11-24T18:55:20.674Z,100516.09
2023-11-24T19:00:25.045Z,100520.44
2023-11-24T19:05:33.618Z,100528.28
2023-11-24T19:10:41.220Z,100380.22
2023-11-24T19:15:48.604Z,100205.50
2023-11-24T19:21:05.672Z,100098.69
2023-11-24T19:26:13.857Z,100208.94
2023-11-24T19:31:29.708Z,100471.09
2023-11-24T19:42:58.745Z,100110.44
2023-11-24T19:48:05.091Z,100574.72
2023-11-24T19:53:08.367Z,100219.13
2023-11-24T19:58:13.446Z,100262.34
2023-11-24T20:03:48.996Z,100585.78
2023-11-24T20:08:57.408Z,100386.75
2023-11-24T20:14:10.398Z,100486.97
2023-11-24T20:19:16.483Z,100111.19
2023-11-24T20:25:08.271Z,100137.03
2023-11-24T20:30:27.854Z,100598.84
2023-11-24T20:35:36.313Z,100581.44
2023-11-24T20:40:41.579Z,100347.56
2023-11-24T20:45:54.715Z,100596.97
2023-11-24T20:50:57.588Z,100617.50
2023-11-24T20:56:00.807Z,100616.19
2023-11-24T21:01:06.155Z,100622.88
2023-11-24T21:06:09.726Z,100632.78
2023-11-24T21:11:12.601Z,100619.31
2023-11-24T21:16:16.635Z,100636.28
2023-11-24T21:21:19.334Z,100691.13
2023-11-24T21:26:22.256Z,100696.88
2023-11-24T21:31:26.275Z,100725.41
2023-11-24T21:36:28.951Z,100733.97
2023-11-24T21:41:31.579Z,100755.84
2023-11-24T21:46:36.932Z,100757.59
2023-11-24T21:51:40.642Z,100681.53
2023-11-24T21:56:43.260Z,100779.09
2023-11-24T22:01:47.560Z,100786.31
2023-11-24T22:06:50.327Z,100805.25
2023-11-24T22:11:52.981Z,100802.16
2023-11-24T22:16:57.148Z,100769.53
2023-11-24T22:22:00.074Z,100774.47
2023-11-24T22:27:06.279Z,100782.91
2023-11-24T22:32:10.922Z,100774.78
2023-11-24T22:37:13.653Z,100794.59
2023-11-24T22:42:16.446Z,100801.09
2023-11-24T22:47:20.864Z,100808.75
2023-11-24T22:52:23.742Z,100813.25
2023-11-24T22:57:28.103Z,100818.13
2023-11-24T23:02:32.116Z,100820.13
2023-11-24T23:07:36.277Z,100825.84
2023-11-24T23:12:40.554Z,100844.41
2023-11-24T23:17:45.520Z,100855.66
2023-11-24T23:22:49.341Z,100878.03
2023-11-24T23:27:52.506Z,100883.91
2023-11-24T23:33:10.077Z,100894.28
2023-11-24T23:38:20.137Z,100892.22
2023-11-24T23:43:24.146Z,100878.50
2023-11-24T23:48:28.360Z,100865.66
2023-11-24T23:53:31.583Z,100885.22
2023-11-24T23:58:35.521Z,100893.91
